sensor_id;sensor_type;location;lat;lon;timestamp;temperature;humidity
16523;DHT22;19889;52.546;13.348;2023-04-15T00:02:16;10.80;99.90
16523;DHT22;19889;52.546;13.348;2023-04-15T00:04:44;10.90;99.90
16523;DHT22;19889;52.546;13.348;2023-04-15T00:07:11;10.40;99.90
16523;DHT22;19889;52.546;13.348;2023-04-15T00:09:39;10.40;99.90
16523;DHT22;19889;52.546;13.348;2023-04-15T00:12:08;10.50;99.90
16523;DHT22;19889;52.546;13.348;2023-04-15T00:14:35;10.40;99.90
16523;DHT22;19889;52.546;13.348;2023-04-15T00:17:02;10.50;99.90
16523;DHT22;19889;52.546;13.348;2023-04-15T00:19:29;10.40;99.90
16523;DHT22;19889;52.546;13.348;2023-04-15T00:21:57;10.40;99.90
16523;DHT22;19889;52.546;13.348;2023-04-15T00:24:24;10.40;99.90
16523;DHT22;19889;52.546;13.348;2023-04-15T00:26:51;10.40;99.90
16523;DHT22;19889;52.546;13.348;2023-04-15T00:29:19;10.40;99.90
16523;DHT22;19889;52.546;13.348;2023-04-15T00:31:46;10.40;99.90
16523;DHT22;19889;52.546;13.348;2023-04-15T00:34:13;10.30;99.90
16523;DHT22;19889;52.546;13.348;2023-04-15T00:36:42;10.30;99.90
16523;DHT22;19889;52.546;13.348;2023-04-15T00:39:09;10.80;99.90
16523;DHT22;19889;52.546;13.348;2023-04-15T00:41:36;10.40;99.90
16523;DHT22;19889;52.546;13.348;2023-04-15T00:44:05;10.40;99.90
16523;DHT22;19889;52.546;13.348;2023-04-15T00:46:35;10.40;99.90
16523;DHT22;19889;52.546;13.348;2023-04-15T00:49:04;10.60;99.90
16523;DHT22;19889;52.546;13.348;2023-04-15T00:51:32;10.40;99.90
16523;DHT22;19889;52.546;13.348;2023-04-15T00:54:01;10.40;99.90
16523;DHT22;19889;52.546;13.348;2023-04-15T00:56:29;10.40;99.90
16523;DHT22;19889;52.546;13.348;2023-04-15T00:58:58;10.40;99.90
16523;DHT22;19889;52.546;13.348;2023-04-15T01:01:25;10.40;99.90
16523;DHT22;19889;52.546;13.348;2023-04-15T01:03:55;10.60;99.90
16523;DHT22;19889;52.546;13.348;2023-04-15T01:06:23;10.40;99.90
16523;DHT22;19889;52.546;13.348;2023-04-15T01:08:52;10.40;99.90
16523;DHT22;19889;52.546;13.348;2023-04-15T01:11:19;10.30;99.90
16523;DHT22;19889;52.546;13.348;2023-04-15T01:13:47;10.40;99.90
16523;DHT22;19889;52.546;13.348;2023-04-15T01:16:14;10.40;99.90
16523;DHT22;19889;52.546;13.348;2023-04-15T01:18:41;10.40;99.90
16523;DHT22;19889;52.546;13.348;2023-04-15T01:21:10;10.30;99.90
16523;DHT22;19889;52.546;13.348;2023-04-15T01:23:38;10.50;99.90
16523;DHT22;19889;52.546;13.348;2023-04-15T01:26:07;10.50;99.90
16523;DHT22;19889;52.546;13.348;2023-04-15T01:28:35;10.40;99.90
16523;DHT22;19889;52.546;13.348;2023-04-15T01:31:07;10.30;99.90
16523;DHT22;19889;52.546;13.348;2023-04-15T01:33:36;10.40;99.90
16523;DHT22;19889;52.546;13.348;2023-04-15T01:36:04;10.40;99.90
16523;DHT22;19889;52.546;13.348;2023-04-15T01:38:33;10.40;99.90
16523;DHT22;19889;52.546;13.348;2023-04-15T01:41:00;10.40;99.90
16523;DHT22;19889;52.546;13.348;2023-04-15T01:43:29;10.40;99.90
16523;DHT22;19889;52.546;13.348;2023-04-15T01:45:56;10.40;99.90
16523;DHT22;19889;52.546;13.348;2023-04-15T01:48:24;10.60;99.90
16523;DHT22;19889;52.546;13.348;2023-04-15T01:50:53;10.40;99.90
16523;DHT22;19889;52.546;13.348;2023-04-15T01:53:22;10.50;99.90
16523;DHT22;19889;52.546;13.348;2023-04-15T01:55:49;9.50;99.90
16523;DHT22;19889;52.546;13.348;2023-04-15T01:58:17;10.40;99.90
16523;DHT22;19889;52.546;13.348;2023-04-15T02:00:45;10.50;99.90
16523;DHT22;19889;52.546;13.348;2023-04-15T02:03:12;10.40;99.90
16523;DHT22;19889;52.546;13.348;2023-04-15T02:05:39;10.40;99.90
16523;DHT22;19889;52.546;13.348;2023-04-15T02:08:07;10.40;99.90
16523;DHT22;19889;52.546;13.348;2023-04-15T02:10:36;10.40;99.90
16523;DHT22;19889;52.546;13.348;2023-04-15T02:13:04;10.70;99.90
16523;DHT22;19889;52.546;13.348;2023-04-15T02:15:31;10.50;99.90
16523;DHT22;19889;52.546;13.348;2023-04-15T02:18:00;10.50;99.90
16523;DHT22;19889;52.546;13.348;2023-04-15T02:20:27;10.50;99.90
16523;DHT22;19889;52.546;13.348;2023-04-15T02:22:57;10.20;99.90
16523;DHT22;19889;52.546;13.348;2023-04-15T02:25:24;10.50;99.90
16523;DHT22;19889;52.546;13.348;2023-04-15T02:27:51;10.50;99.90
16523;DHT22;19889;52.546;13.348;2023-04-15T02:30:18;10.50;99.90
16523;DHT22;19889;52.546;13.348;2023-04-15T02:32:46;10.50;99.90
16523;DHT22;19889;52.546;13.348;2023-04-15T02:35:14;10.70;99.90
16523;DHT22;19889;52.546;13.348;2023-04-15T02:37:44;10.30;99.90
16523;DHT22;19889;52.546;13.348;2023-04-15T02:40:12;10.60;99.90
16523;DHT22;19889;52.546;13.348;2023-04-15T02:42:39;10.50;99.90
16523;DHT22;19889;52.546;13.348;2023-04-15T02:45:10;10.40;99.90
16523;DHT22;19889;52.546;13.348;2023-04-15T02:47:38;10.50;99.90
16523;DHT22;19889;52.546;13.348;2023-04-15T02:50:07;10.50;99.90
16523;DHT22;19889;52.546;13.348;2023-04-15T02:52:38;10.40;99.90
16523;DHT22;19889;52.546;13.348;2023-04-15T02:55:06;10.70;99.90
16523;DHT22;19889;52.546;13.348;2023-04-15T02:57:35;10.40;99.90
16523;DHT22;19889;52.546;13.348;2023-04-15T03:00:06;10.40;99.90
16523;DHT22;19889;52.546;13.348;2023-04-15T03:02:36;10.40;99.90
16523;DHT22;19889;52.546;13.348;2023-04-15T03:05:05;10.40;99.90
16523;DHT22;19889;52.546;13.348;2023-04-15T03:07:32;10.40;99.90
16523;DHT22;19889;52.546;13.348;2023-04-15T03:10:02;10.50;99.90
16523;DHT22;19889;52.546;13.348;2023-04-15T03:12:30;10.40;99.90
16523;DHT22;19889;52.546;13.348;2023-04-15T03:14:57;10.60;99.90
16523;DHT22;19889;52.546;13.348;2023-04-15T03:17:32;10.40;99.90
16523;DHT22;19889;52.546;13.348;2023-04-15T03:20:00;10.30;99.90
16523;DHT22;19889;52.546;13.348;2023-04-15T03:22:28;10.30;99.90
16523;DHT22;19889;52.546;13.348;2023-04-15T03:24:55;10.30;99.90
16523;DHT22;19889;52.546;13.348;2023-04-15T03:27:24;10.30;99.90
16523;DHT22;19889;52.546;13.348;2023-04-15T03:29:54;10.30;99.90
16523;DHT22;19889;52.546;13.348;2023-04-15T03:32:23;10.30;99.90
16523;DHT22;19889;52.546;13.348;2023-04-15T03:34:50;10.30;99.90
16523;DHT22;19889;52.546;13.348;2023-04-15T03:37:17;10.30;99.90
16523;DHT22;19889;52.546;13.348;2023-04-15T03:39:44;10.40;99.90
16523;DHT22;19889;52.546;13.348;2023-04-15T03:42:11;10.40;99.90
16523;DHT22;19889;52.546;13.348;2023-04-15T03:44:40;10.40;99.90
16523;DHT22;19889;52.546;13.348;2023-04-15T03:47:07;10.40;99.90
16523;DHT22;19889;52.546;13.348;2023-04-15T03:49:34;10.30;99.90
16523;DHT22;19889;52.546;13.348;2023-04-15T03:52:01;10.40;99.90
16523;DHT22;19889;52.546;13.348;2023-04-15T03:54:28;10.40;99.90
16523;DHT22;19889;52.546;13.348;2023-04-15T03:56:55;10.40;99.90
16523;DHT22;19889;52.546;13.348;2023-04-15T03:59:22;10.40;99.90
16523;DHT22;19889;52.546;13.348;2023-04-15T04:01:51;10.30;99.90
16523;DHT22;19889;52.546;13.348;2023-04-15T04:04:18;10.30;99.90
16523;DHT22;19889;52.546;13.348;2023-04-15T04:06:45;10.40;99.90
16523;DHT22;19889;52.546;13.348;2023-04-15T04:09:12;10.40;99.90
16523;DHT22;19889;52.546;13.348;2023-04-15T04:11:39;10.40;99.90
16523;DHT22;19889;52.546;13.348;2023-04-15T04:14:06;10.40;99.90
16523;DHT22;19889;52.546;13.348;2023-04-15T04:16:33;10.40;99.90
16523;DHT22;19889;52.546;13.348;2023-04-15T04:19:01;10.40;99.90
16523;DHT22;19889;52.546;13.348;2023-04-15T04:21:28;10.40;99.90
16523;DHT22;19889;52.546;13.348;2023-04-15T04:23:55;10.40;99.90
16523;DHT22;19889;52.546;13.348;2023-04-15T04:26:23;10.40;99.90
16523;DHT22;19889;52.546;13.348;2023-04-15T04:28:50;10.40;99.90
16523;DHT22;19889;52.546;13.348;2023-04-15T04:31:17;10.40;99.90
16523;DHT22;19889;52.546;13.348;2023-04-15T04:33:44;10.40;99.90
16523;DHT22;19889;52.546;13.348;2023-04-15T04:36:13;10.50;99.90
16523;DHT22;19889;52.546;13.348;2023-04-15T04:38:40;10.50;99.90
16523;DHT22;19889;52.546;13.348;2023-04-15T04:41:07;10.40;99.90
16523;DHT22;19889;52.546;13.348;2023-04-15T04:43:34;10.50;99.90
16523;DHT22;19889;52.546;13.348;2023-04-15T04:46:01;10.40;99.90
16523;DHT22;19889;52.546;13.348;2023-04-15T04:48:28;10.50;99.90
16523;DHT22;19889;52.546;13.348;2023-04-15T04:50:55;10.40;99.90
16523;DHT22;19889;52.546;13.348;2023-04-15T04:53:23;10.50;99.90
16523;DHT22;19889;52.546;13.348;2023-04-15T04:55:50;10.50;99.90
16523;DHT22;19889;52.546;13.348;2023-04-15T04:58:18;10.50;99.90
16523;DHT22;19889;52.546;13.348;2023-04-15T05:00:45;10.50;99.90
16523;DHT22;19889;52.546;13.348;2023-04-15T05:03:12;10.50;99.90
16523;DHT22;19889;52.546;13.348;2023-04-15T05:05:41;10.50;99.90
16523;DHT22;19889;52.546;13.348;2023-04-15T05:08:08;10.60;99.90
16523;DHT22;19889;52.546;13.348;2023-04-15T05:10:37;10.50;99.90
16523;DHT22;19889;52.546;13.348;2023-04-15T05:13:04;10.50;99.90
16523;DHT22;19889;52.546;13.348;2023-04-15T05:15:31;10.50;99.90
16523;DHT22;19889;52.546;13.348;2023-04-15T05:17:59;10.60;99.90
16523;DHT22;19889;52.546;13.348;2023-04-15T05:20:26;10.60;99.90
16523;DHT22;19889;52.546;13.348;2023-04-15T05:22:53;10.60;99.90
16523;DHT22;19889;52.546;13.348;2023-04-15T05:25:20;10.60;99.90
16523;DHT22;19889;52.546;13.348;2023-04-15T05:27:48;10.60;99.90
16523;DHT22;19889;52.546;13.348;2023-04-15T05:30:15;10.60;99.90
16523;DHT22;19889;52.546;13.348;2023-04-15T05:32:42;10.70;99.90
16523;DHT22;19889;52.546;13.348;2023-04-15T05:35:09;10.60;99.90
16523;DHT22;19889;52.546;13.348;2023-04-15T05:37:36;10.70;99.90
16523;DHT22;19889;52.546;13.348;2023-04-15T05:40:03;10.70;99.90
16523;DHT22;19889;52.546;13.348;2023-04-15T05:42:30;10.70;99.90
16523;DHT22;19889;52.546;13.348;2023-04-15T05:44:58;10.70;99.90
16523;DHT22;19889;52.546;13.348;2023-04-15T05:47:25;10.70;99.90
16523;DHT22;19889;52.546;13.348;2023-04-15T05:49:52;10.70;99.90
16523;DHT22;19889;52.546;13.348;2023-04-15T05:52:20;10.70;99.90
16523;DHT22;19889;52.546;13.348;2023-04-15T05:54:47;10.80;99.90
16523;DHT22;19889;52.546;13.348;2023-04-15T05:57:14;10.80;99.90
16523;DHT22;19889;52.546;13.348;2023-04-15T05:59:41;10.80;99.90
16523;DHT22;19889;52.546;13.348;2023-04-15T06:02:10;10.80;99.90
16523;DHT22;19889;52.546;13.348;2023-04-15T06:04:38;10.80;99.90
16523;DHT22;19889;52.546;13.348;2023-04-15T06:07:05;10.80;99.90
16523;DHT22;19889;52.546;13.348;2023-04-15T06:09:31;11.00;99.90
16523;DHT22;19889;52.546;13.348;2023-04-15T06:11:59;10.90;99.90
16523;DHT22;19889;52.546;13.348;2023-04-15T06:14:26;10.90;99.90
16523;DHT22;19889;52.546;13.348;2023-04-15T06:16:53;10.90;99.90
16523;DHT22;19889;52.546;13.348;2023-04-15T06:19:22;10.40;99.90
16523;DHT22;19889;52.546;13.348;2023-04-15T06:21:49;10.90;99.90
16523;DHT22;19889;52.546;13.348;2023-04-15T06:24:16;10.90;99.90
16523;DHT22;19889;52.546;13.348;2023-04-15T06:26:43;11.00;99.90
16523;DHT22;19889;52.546;13.348;2023-04-15T06:29:10;11.00;99.90
16523;DHT22;19889;52.546;13.348;2023-04-15T06:31:36;11.00;99.90
16523;DHT22;19889;52.546;13.348;2023-04-15T06:34:03;11.00;99.90
16523;DHT22;19889;52.546;13.348;2023-04-15T06:36:32;11.00;99.90
16523;DHT22;19889;52.546;13.348;2023-04-15T06:38:59;11.00;99.90
16523;DHT22;19889;52.546;13.348;2023-04-15T06:41:25;11.00;99.90
16523;DHT22;19889;52.546;13.348;2023-04-15T06:48:47;11.20;99.90
16523;DHT22;19889;52.546;13.348;2023-04-15T06:51:14;11.20;99.90
16523;DHT22;19889;52.546;13.348;2023-04-15T06:53:42;11.30;99.90
16523;DHT22;19889;52.546;13.348;2023-04-15T06:56:09;11.30;99.90
16523;DHT22;19889;52.546;13.348;2023-04-15T06:58:36;11.40;99.90
16523;DHT22;19889;52.546;13.348;2023-04-15T07:01:03;11.30;99.90
16523;DHT22;19889;52.546;13.348;2023-04-15T07:03:30;11.40;99.90
16523;DHT22;19889;52.546;13.348;2023-04-15T07:05:57;11.50;99.90
16523;DHT22;19889;52.546;13.348;2023-04-15T07:08:26;11.50;99.90
16523;DHT22;19889;52.546;13.348;2023-04-15T07:10:54;11.50;99.90
16523;DHT22;19889;52.546;13.348;2023-04-15T07:13:21;11.60;99.90
16523;DHT22;19889;52.546;13.348;2023-04-15T07:15:48;11.70;99.90
16523;DHT22;19889;52.546;13.348;2023-04-15T07:18:15;11.60;99.90
16523;DHT22;19889;52.546;13.348;2023-04-15T07:20:42;10.70;99.90
16523;DHT22;19889;52.546;13.348;2023-04-15T07:23:09;11.60;99.90
16523;DHT22;19889;52.546;13.348;2023-04-15T07:25:36;11.60;99.90
16523;DHT22;19889;52.546;13.348;2023-04-15T07:28:04;11.60;99.90
16523;DHT22;19889;52.546;13.348;2023-04-15T07:30:31;11.60;99.90
16523;DHT22;19889;52.546;13.348;2023-04-15T07:32:59;11.60;99.90
16523;DHT22;19889;52.546;13.348;2023-04-15T07:35:26;11.60;99.90
16523;DHT22;19889;52.546;13.348;2023-04-15T07:37:54;11.60;99.90
16523;DHT22;19889;52.546;13.348;2023-04-15T07:40:21;11.60;99.90
16523;DHT22;19889;52.546;13.348;2023-04-15T07:42:48;11.60;99.90
16523;DHT22;19889;52.546;13.348;2023-04-15T07:45:16;11.50;99.90
16523;DHT22;19889;52.546;13.348;2023-04-15T07:47:43;11.50;99.90
16523;DHT22;19889;52.546;13.348;2023-04-15T07:50:10;11.50;99.90
16523;DHT22;19889;52.546;13.348;2023-04-15T07:52:37;11.50;99.90
16523;DHT22;19889;52.546;13.348;2023-04-15T07:55:05;11.50;99.90
16523;DHT22;19889;52.546;13.348;2023-04-15T07:57:33;11.60;99.90
16523;DHT22;19889;52.546;13.348;2023-04-15T08:00:00;11.60;99.90
16523;DHT22;19889;52.546;13.348;2023-04-15T08:02:39;11.50;99.90
16523;DHT22;19889;52.546;13.348;2023-04-15T08:05:07;11.60;99.90
16523;DHT22;19889;52.546;13.348;2023-04-15T08:07:35;11.60;99.90
16523;DHT22;19889;52.546;13.348;2023-04-15T08:10:02;11.50;99.90
16523;DHT22;19889;52.546;13.348;2023-04-15T08:12:29;11.50;99.90
16523;DHT22;19889;52.546;13.348;2023-04-15T08:14:57;11.50;99.90
16523;DHT22;19889;52.546;13.348;2023-04-15T08:17:27;11.50;99.90
16523;DHT22;19889;52.546;13.348;2023-04-15T08:19:55;11.80;99.90
16523;DHT22;19889;52.546;13.348;2023-04-15T08:22:22;11.50;99.90
16523;DHT22;19889;52.546;13.348;2023-04-15T08:24:50;11.50;99.90
16523;DHT22;19889;52.546;13.348;2023-04-15T08:27:17;11.50;99.90
16523;DHT22;19889;52.546;13.348;2023-04-15T08:29:44;11.50;99.90
16523;DHT22;19889;52.546;13.348;2023-04-15T08:32:11;11.50;99.90
16523;DHT22;19889;52.546;13.348;2023-04-15T08:34:38;11.60;99.90
16523;DHT22;19889;52.546;13.348;2023-04-15T08:37:06;11.50;99.90
16523;DHT22;19889;52.546;13.348;2023-04-15T08:39:33;11.50;99.90
16523;DHT22;19889;52.546;13.348;2023-04-15T08:42:01;11.50;99.90
16523;DHT22;19889;52.546;13.348;2023-04-15T08:44:33;11.60;99.90
16523;DHT22;19889;52.546;13.348;2023-04-15T08:47:00;11.60;99.90
16523;DHT22;19889;52.546;13.348;2023-04-15T08:49:28;11.60;99.90
16523;DHT22;19889;52.546;13.348;2023-04-15T08:51:57;11.70;99.90
16523;DHT22;19889;52.546;13.348;2023-04-15T08:54:26;11.70;99.90
16523;DHT22;19889;52.546;13.348;2023-04-15T08:56:53;11.70;99.90
16523;DHT22;19889;52.546;13.348;2023-04-15T08:59:20;12.50;99.90
16523;DHT22;19889;52.546;13.348;2023-04-15T09:01:47;11.70;99.90
16523;DHT22;19889;52.546;13.348;2023-04-15T09:04:15;11.70;99.90
16523;DHT22;19889;52.546;13.348;2023-04-15T09:06:43;11.80;99.90
16523;DHT22;19889;52.546;13.348;2023-04-15T09:09:11;11.80;99.90
16523;DHT22;19889;52.546;13.348;2023-04-15T09:11:40;11.70;99.90
16523;DHT22;19889;52.546;13.348;2023-04-15T09:14:07;11.80;99.90
16523;DHT22;19889;52.546;13.348;2023-04-15T09:16:55;11.80;99.90
16523;DHT22;19889;52.546;13.348;2023-04-15T09:19:23;11.80;99.90
16523;DHT22;19889;52.546;13.348;2023-04-15T09:21:50;11.80;99.90
16523;DHT22;19889;52.546;13.348;2023-04-15T09:24:17;11.80;99.90
16523;DHT22;19889;52.546;13.348;2023-04-15T09:26:46;11.80;99.90
16523;DHT22;19889;52.546;13.348;2023-04-15T09:29:13;11.80;99.90
16523;DHT22;19889;52.546;13.348;2023-04-15T09:31:40;11.80;99.90
16523;DHT22;19889;52.546;13.348;2023-04-15T09:34:08;11.90;99.90
16523;DHT22;19889;52.546;13.348;2023-04-15T09:36:51;11.80;99.90
16523;DHT22;19889;52.546;13.348;2023-04-15T09:39:19;11.80;99.90
16523;DHT22;19889;52.546;13.348;2023-04-15T09:42:03;11.80;99.90
16523;DHT22;19889;52.546;13.348;2023-04-15T09:44:31;11.80;99.90
16523;DHT22;19889;52.546;13.348;2023-04-15T09:46:58;11.90;99.90
16523;DHT22;19889;52.546;13.348;2023-04-15T09:49:25;11.90;99.90
16523;DHT22;19889;52.546;13.348;2023-04-15T09:51:57;11.90;99.90
16523;DHT22;19889;52.546;13.348;2023-04-15T09:54:35;11.90;99.90
16523;DHT22;19889;52.546;13.348;2023-04-15T09:57:08;11.90;99.90
16523;DHT22;19889;52.546;13.348;2023-04-15T09:59:36;11.90;99.90
16523;DHT22;19889;52.546;13.348;2023-04-15T10:02:04;11.90;99.90
16523;DHT22;19889;52.546;13.348;2023-04-15T10:04:34;11.90;99.90
16523;DHT22;19889;52.546;13.348;2023-04-15T10:07:03;11.90;99.90
16523;DHT22;19889;52.546;13.348;2023-04-15T10:09:31;11.90;99.90
16523;DHT22;19889;52.546;13.348;2023-04-15T10:11:59;11.90;99.90
16523;DHT22;19889;52.546;13.348;2023-04-15T10:14:32;11.90;99.90
16523;DHT22;19889;52.546;13.348;2023-04-15T10:17:01;11.90;99.90
16523;DHT22;19889;52.546;13.348;2023-04-15T10:19:30;11.90;99.90
16523;DHT22;19889;52.546;13.348;2023-04-15T10:21:59;11.90;99.90
16523;DHT22;19889;52.546;13.348;2023-04-15T10:24:27;11.90;99.90
16523;DHT22;19889;52.546;13.348;2023-04-15T10:26:54;11.90;99.90
16523;DHT22;19889;52.546;13.348;2023-04-15T10:29:23;11.90;99.90
16523;DHT22;19889;52.546;13.348;2023-04-15T10:31:52;12.00;99.90
16523;DHT22;19889;52.546;13.348;2023-04-15T10:34:20;11.90;99.90
16523;DHT22;19889;52.546;13.348;2023-04-15T10:36:48;11.90;99.90
16523;DHT22;19889;52.546;13.348;2023-04-15T10:39:39;11.90;99.90
16523;DHT22;19889;52.546;13.348;2023-04-15T10:42:08;11.90;99.90
16523;DHT22;19889;52.546;13.348;2023-04-15T10:44:35;11.90;99.90
16523;DHT22;19889;52.546;13.348;2023-04-15T10:47:08;12.00;99.90
16523;DHT22;19889;52.546;13.348;2023-04-15T10:49:42;11.30;99.90
16523;DHT22;19889;52.546;13.348;2023-04-15T10:52:11;12.00;99.90
16523;DHT22;19889;52.546;13.348;2023-04-15T10:54:38;12.00;99.90
16523;DHT22;19889;52.546;13.348;2023-04-15T10:57:13;12.20;99.90
16523;DHT22;19889;52.546;13.348;2023-04-15T11:00:00;12.00;99.90
16523;DHT22;19889;52.546;13.348;2023-04-15T11:02:46;12.10;99.90
16523;DHT22;19889;52.546;13.348;2023-04-15T11:05:14;12.10;99.90
16523;DHT22;19889;52.546;13.348;2023-04-15T11:07:50;12.10;99.90
16523;DHT22;19889;52.546;13.348;2023-04-15T11:10:49;12.10;99.90
16523;DHT22;19889;52.546;13.348;2023-04-15T11:13:21;12.10;99.90
16523;DHT22;19889;52.546;13.348;2023-04-15T11:15:50;12.10;99.90
16523;DHT22;19889;52.546;13.348;2023-04-15T11:18:24;12.20;99.90
16523;DHT22;19889;52.546;13.348;2023-04-15T11:20:54;12.30;99.90
16523;DHT22;19889;52.546;13.348;2023-04-15T11:23:28;12.20;99.90
16523;DHT22;19889;52.546;13.348;2023-04-15T11:25:56;12.10;99.90
16523;DHT22;19889;52.546;13.348;2023-04-15T11:28:25;12.10;99.90
16523;DHT22;19889;52.546;13.348;2023-04-15T11:30:53;12.10;99.90
16523;DHT22;19889;52.546;13.348;2023-04-15T11:33:23;12.10;99.90
16523;DHT22;19889;52.546;13.348;2023-04-15T11:35:52;12.20;99.90
16523;DHT22;19889;52.546;13.348;2023-04-15T11:38:20;12.20;99.90
16523;DHT22;19889;52.546;13.348;2023-04-15T11:40:48;12.20;99.90
16523;DHT22;19889;52.546;13.348;2023-04-15T11:43:16;12.20;99.90
16523;DHT22;19889;52.546;13.348;2023-04-15T11:45:50;12.20;99.90
16523;DHT22;19889;52.546;13.348;2023-04-15T11:48:19;12.20;99.90
16523;DHT22;19889;52.546;13.348;2023-04-15T11:50:53;12.20;99.90
16523;DHT22;19889;52.546;13.348;2023-04-15T11:53:20;12.20;99.90
16523;DHT22;19889;52.546;13.348;2023-04-15T11:55:49;12.20;99.90
16523;DHT22;19889;52.546;13.348;2023-04-15T11:58:19;12.20;99.90
16523;DHT22;19889;52.546;13.348;2023-04-15T12:00:48;12.50;99.90
16523;DHT22;19889;52.546;13.348;2023-04-15T12:03:23;12.20;99.90
16523;DHT22;19889;52.546;13.348;2023-04-15T12:06:19;12.20;99.90
16523;DHT22;19889;52.546;13.348;2023-04-15T12:09:09;12.20;99.90
16523;DHT22;19889;52.546;13.348;2023-04-15T12:11:46;12.20;99.90
16523;DHT22;19889;52.546;13.348;2023-04-15T12:14:20;12.20;99.90
16523;DHT22;19889;52.546;13.348;2023-04-15T12:16:49;12.20;99.90
16523;DHT22;19889;52.546;13.348;2023-04-15T12:19:22;12.20;99.90
16523;DHT22;19889;52.546;13.348;2023-04-15T12:21:53;12.30;99.90
16523;DHT22;19889;52.546;13.348;2023-04-15T12:24:23;12.30;99.90
16523;DHT22;19889;52.546;13.348;2023-04-15T12:26:52;12.30;99.90
16523;DHT22;19889;52.546;13.348;2023-04-15T12:29:25;12.30;99.90
16523;DHT22;19889;52.546;13.348;2023-04-15T12:31:54;12.30;99.90
16523;DHT22;19889;52.546;13.348;2023-04-15T12:34:27;12.30;99.90
16523;DHT22;19889;52.546;13.348;2023-04-15T12:36:56;12.30;99.90
16523;DHT22;19889;52.546;13.348;2023-04-15T12:39:24;12.30;99.90
16523;DHT22;19889;52.546;13.348;2023-04-15T12:41:53;12.30;99.90
16523;DHT22;19889;52.546;13.348;2023-04-15T12:44:22;12.30;99.90
16523;DHT22;19889;52.546;13.348;2023-04-15T12:46:50;12.30;99.90
16523;DHT22;19889;52.546;13.348;2023-04-15T12:49:17;12.30;99.90
16523;DHT22;19889;52.546;13.348;2023-04-15T12:51:47;12.30;99.90
16523;DHT22;19889;52.546;13.348;2023-04-15T12:54:16;12.30;99.90
16523;DHT22;19889;52.546;13.348;2023-04-15T12:56:45;12.70;99.90
16523;DHT22;19889;52.546;13.348;2023-04-15T12:59:12;12.30;99.90
16523;DHT22;19889;52.546;13.348;2023-04-15T13:01:40;12.30;99.90
16523;DHT22;19889;52.546;13.348;2023-04-15T13:04:07;12.30;99.90
16523;DHT22;19889;52.546;13.348;2023-04-15T13:06:34;12.30;99.90
16523;DHT22;19889;52.546;13.348;2023-04-15T13:09:01;12.80;99.90
16523;DHT22;19889;52.546;13.348;2023-04-15T13:11:30;12.30;99.90
16523;DHT22;19889;52.546;13.348;2023-04-15T13:13:59;12.30;99.90
16523;DHT22;19889;52.546;13.348;2023-04-15T13:16:26;12.30;99.90
16523;DHT22;19889;52.546;13.348;2023-04-15T13:18:53;12.30;99.90
16523;DHT22;19889;52.546;13.348;2023-04-15T13:21:20;12.30;99.90
16523;DHT22;19889;52.546;13.348;2023-04-15T13:23:48;12.30;99.90
16523;DHT22;19889;52.546;13.348;2023-04-15T13:26:15;12.30;99.90
16523;DHT22;19889;52.546;13.348;2023-04-15T13:28:44;12.30;99.90
16523;DHT22;19889;52.546;13.348;2023-04-15T13:31:11;12.30;99.90
16523;DHT22;19889;52.546;13.348;2023-04-15T13:33:38;12.30;99.90
16523;DHT22;19889;52.546;13.348;2023-04-15T13:36:06;12.30;99.90
16523;DHT22;19889;52.546;13.348;2023-04-15T13:38:33;12.30;99.90
16523;DHT22;19889;52.546;13.348;2023-04-15T13:41:00;12.30;99.90
16523;DHT22;19889;52.546;13.348;2023-04-15T13:43:27;12.30;99.90
16523;DHT22;19889;52.546;13.348;2023-04-15T13:45:55;12.30;99.90
16523;DHT22;19889;52.546;13.348;2023-04-15T13:48:22;12.30;99.90
16523;DHT22;19889;52.546;13.348;2023-04-15T13:50:49;12.30;99.90
16523;DHT22;19889;52.546;13.348;2023-04-15T13:53:16;12.20;99.90
16523;DHT22;19889;52.546;13.348;2023-04-15T13:55:43;12.20;99.90
16523;DHT22;19889;52.546;13.348;2023-04-15T13:58:10;12.20;99.90
16523;DHT22;19889;52.546;13.348;2023-04-15T14:00:37;12.20;99.90
16523;DHT22;19889;52.546;13.348;2023-04-15T14:03:05;12.20;99.90
16523;DHT22;19889;52.546;13.348;2023-04-15T14:05:32;12.20;99.90
16523;DHT22;19889;52.546;13.348;2023-04-15T14:07:59;13.30;99.90
16523;DHT22;19889;52.546;13.348;2023-04-15T14:10:26;12.20;99.90
16523;DHT22;19889;52.546;13.348;2023-04-15T14:12:53;12.30;99.90
16523;DHT22;19889;52.546;13.348;2023-04-15T14:15:20;12.20;99.90
16523;DHT22;19889;52.546;13.348;2023-04-15T14:17:47;12.20;99.90
16523;DHT22;19889;52.546;13.348;2023-04-15T14:20:16;12.30;99.90
16523;DHT22;19889;52.546;13.348;2023-04-15T14:22:43;12.30;99.90
16523;DHT22;19889;52.546;13.348;2023-04-15T14:25:10;13.00;99.90
16523;DHT22;19889;52.546;13.348;2023-04-15T14:27:37;12.30;99.90
16523;DHT22;19889;52.546;13.348;2023-04-15T14:30:05;12.20;99.90
16523;DHT22;19889;52.546;13.348;2023-04-15T14:32:32;12.20;99.90
16523;DHT22;19889;52.546;13.348;2023-04-15T14:34:59;12.20;99.90
16523;DHT22;19889;52.546;13.348;2023-04-15T14:37:27;12.20;99.90
16523;DHT22;19889;52.546;13.348;2023-04-15T14:39:54;12.20;99.90
16523;DHT22;19889;52.546;13.348;2023-04-15T14:42:21;12.20;99.90
16523;DHT22;19889;52.546;13.348;2023-04-15T14:44:48;12.80;99.90
16523;DHT22;19889;52.546;13.348;2023-04-15T14:47:15;12.20;99.90
16523;DHT22;19889;52.546;13.348;2023-04-15T14:49:42;12.20;99.90
16523;DHT22;19889;52.546;13.348;2023-04-15T14:52:09;12.70;99.90
16523;DHT22;19889;52.546;13.348;2023-04-15T14:54:38;12.50;99.90
16523;DHT22;19889;52.546;13.348;2023-04-15T14:57:05;12.20;99.90
16523;DHT22;19889;52.546;13.348;2023-04-15T14:59:33;12.20;99.90
16523;DHT22;19889;52.546;13.348;2023-04-15T15:02:00;12.20;99.90
16523;DHT22;19889;52.546;13.348;2023-04-15T15:04:28;12.20;99.90
16523;DHT22;19889;52.546;13.348;2023-04-15T15:06:55;12.20;99.90
16523;DHT22;19889;52.546;13.348;2023-04-15T15:09:22;12.20;99.90
16523;DHT22;19889;52.546;13.348;2023-04-15T15:11:51;12.20;99.90
16523;DHT22;19889;52.546;13.348;2023-04-15T15:14:18;12.20;99.90
16523;DHT22;19889;52.546;13.348;2023-04-15T15:16:45;12.20;99.90
16523;DHT22;19889;52.546;13.348;2023-04-15T15:19:12;12.20;99.90
16523;DHT22;19889;52.546;13.348;2023-04-15T15:21:39;12.20;99.90
16523;DHT22;19889;52.546;13.348;2023-04-15T15:24:06;12.20;99.90
16523;DHT22;19889;52.546;13.348;2023-04-15T15:26:33;12.20;99.90
16523;DHT22;19889;52.546;13.348;2023-04-15T15:29:01;12.50;99.90